sensor_id;sensor_type;location;lat;lon;timestamp;pressure;altitude;pressure_sealevel;temperature;humidity
48015;BME280;33780;51.034;7.120;2023-07-29T00:01:40;99964.75;;;20.77;84.55
48015;BME280;33780;51.034;7.120;2023-07-29T00:04:06;99964.75;;;20.77;84.25
48015;BME280;33780;51.034;7.120;2023-07-29T00:06:31;99971.03;;;20.78;84.06
48015;BME280;33780;51.034;7.120;2023-07-29T00:08:57;99973.97;;;20.76;84.18
48015;BME280;33780;51.034;7.120;2023-07-29T00:11:22;99968.53;;;20.76;84.53
48015;BME280;33780;51.034;7.120;2023-07-29T00:13:47;99962.88;;;20.78;84.19
48015;BME280;33780;51.034;7.120;2023-07-29T00:16:15;99966.41;;;20.78;84.68
48015;BME280;33780;51.034;7.120;2023-07-29T00:18:42;99958.25;;;20.78;84.40
48015;BME280;33780;51.034;7.120;2023-07-29T00:21:07;99957.44;;;20.78;84.08
48015;BME280;33780;51.034;7.120;2023-07-29T00:23:32;99953.88;;;20.77;84.41
48015;BME280;33780;51.034;7.120;2023-07-29T00:25:57;99956.59;;;20.77;84.44
48015;BME280;33780;51.034;7.120;2023-07-29T00:28:23;99939.66;;;20.75;84.67
48015;BME280;33780;51.034;7.120;2023-07-29T00:30:48;99945.31;;;20.74;84.94
48015;BME280;33780;51.034;7.120;2023-07-29T00:33:13;99941.78;;;20.73;84.88
48015;BME280;33780;51.034;7.120;2023-07-29T00:35:39;99942.81;;;20.72;84.82
48015;BME280;33780;51.034;7.120;2023-07-29T00:38:04;99939.06;;;20.73;84.64
48015;BME280;33780;51.034;7.120;2023-07-29T00:40:30;99936.34;;;20.73;84.31
48015;BME280;33780;51.034;7.120;2023-07-29T00:42:55;99938.00;;;20.74;84.46
48015;BME280;33780;51.034;7.120;2023-07-29T00:45:21;99935.28;;;20.74;84.78
48015;BME280;33780;51.034;7.120;2023-07-29T00:47:46;99934.44;;;20.74;84.72
48015;BME280;33780;51.034;7.120;2023-07-29T00:50:13;99932.78;;;20.73;84.73
48015;BME280;33780;51.034;7.120;2023-07-29T00:52:40;99939.28;;;20.72;84.59
48015;BME280;33780;51.034;7.120;2023-07-29T00:55:06;99932.16;;;20.71;84.67
48015;BME280;33780;51.034;7.120;2023-07-29T00:57:32;99935.94;;;20.70;84.81
48015;BME280;33780;51.034;7.120;2023-07-29T00:59:58;99929.44;;;20.71;84.78
48015;BME280;33780;51.034;7.120;2023-07-29T01:02:24;99939.50;;;20.70;84.91
48015;BME280;33780;51.034;7.120;2023-07-29T01:04:54;99934.06;;;20.70;84.52
48015;BME280;33780;51.034;7.120;2023-07-29T01:07:47;99932.16;;;20.71;84.95
48015;BME280;33780;51.034;7.120;2023-07-29T01:13:14;99920.47;;;20.70;84.67
48015;BME280;33780;51.034;7.120;2023-07-29T01:15:48;99919.63;;;20.70;84.47
48015;BME280;33780;51.034;7.120;2023-07-29T01:18:24;99914.63;;;20.67;84.64
48015;BME280;33780;51.034;7.120;2023-07-29T01:20:53;99915.69;;;20.66;84.81
48015;BME280;33780;51.034;7.120;2023-07-29T01:23:37;99909.59;;;20.64;85.11
48015;BME280;33780;51.034;7.120;2023-07-29T01:26:03;99910.66;;;20.63;85.02
48015;BME280;33780;51.034;7.120;2023-07-29T01:28:29;99907.94;;;20.63;85.09
48015;BME280;33780;51.034;7.120;2023-07-29T01:31:05;99902.50;;;20.63;85.12
48015;BME280;33780;51.034;7.120;2023-07-29T01:33:59;99908.75;;;20.63;85.06
48015;BME280;33780;51.034;7.120;2023-07-29T01:36:28;99902.50;;;20.63;84.77
48015;BME280;33780;51.034;7.120;2023-07-29T01:38:56;99911.47;;;20.63;84.86
48015;BME280;33780;51.034;7.120;2023-07-29T01:41:22;99905.22;;;20.63;84.87
48015;BME280;33780;51.034;7.120;2023-07-29T01:43:49;99904.38;;;20.62;84.82
48015;BME280;33780;51.034;7.120;2023-07-29T01:46:15;99905.22;;;20.63;84.75
48015;BME280;33780;51.034;7.120;2023-07-29T01:48:41;99902.50;;;20.63;84.57
48015;BME280;33780;51.034;7.120;2023-07-29T01:51:06;99896.44;;;20.61;84.54
48015;BME280;33780;51.034;7.120;2023-07-29T01:53:32;99890.38;;;20.59;85.18
48015;BME280;33780;51.034;7.120;2023-07-29T01:55:58;99895.22;;;20.57;85.28
48015;BME280;33780;51.034;7.120;2023-07-29T01:58:23;99895.66;;;20.54;85.10
48015;BME280;33780;51.034;7.120;2023-07-29T02:00:49;99904.84;;;20.52;85.61
48015;BME280;33780;51.034;7.120;2023-07-29T02:03:14;99890.88;;;20.49;86.23
48015;BME280;33780;51.034;7.120;2023-07-29T02:05:39;99899.66;;;20.44;86.56
48015;BME280;33780;51.034;7.120;2023-07-29T02:08:05;99897.75;;;20.45;86.08
48015;BME280;33780;51.034;7.120;2023-07-29T02:10:30;99895.88;;;20.45;86.25
48015;BME280;33780;51.034;7.120;2023-07-29T02:12:56;99883.97;;;20.46;86.21
48015;BME280;33780;51.034;7.120;2023-07-29T02:15:21;99884.59;;;20.48;85.93
48015;BME280;33780;51.034;7.120;2023-07-29T02:17:46;99887.94;;;20.50;86.11
48015;BME280;33780;51.034;7.120;2023-07-29T02:20:11;99882.50;;;20.50;85.99
48015;BME280;33780;51.034;7.120;2023-07-29T02:22:37;99890.44;;;20.52;85.93
48015;BME280;33780;51.034;7.120;2023-07-29T02:25:02;99884.78;;;20.54;85.99
48015;BME280;33780;51.034;7.120;2023-07-29T02:27:28;99874.72;;;20.54;85.73
48015;BME280;33780;51.034;7.120;2023-07-29T02:29:53;99872.03;;;20.54;86.23
48015;BME280;33780;51.034;7.120;2023-07-29T02:32:19;99872.03;;;20.54;86.03
48015;BME280;33780;51.034;7.120;2023-07-29T02:34:45;99874.72;;;20.54;86.29
48015;BME280;33780;51.034;7.120;2023-07-29T02:37:10;99881.84;;;20.55;86.07
48015;BME280;33780;51.034;7.120;2023-07-29T02:39:36;99881.84;;;20.55;86.23
48015;BME280;33780;51.034;7.120;2023-07-29T02:42:02;99884.34;;;20.57;86.03
48015;BME280;33780;51.034;7.120;2023-07-29T02:44:27;99884.34;;;20.57;86.03
48015;BME280;33780;51.034;7.120;2023-07-29T02:46:52;99880.56;;;20.58;86.00
48015;BME280;33780;51.034;7.120;2023-07-29T02:49:19;99892.06;;;20.60;86.23
48015;BME280;33780;51.034;7.120;2023-07-29T02:51:45;99887.44;;;20.60;85.99
48015;BME280;33780;51.034;7.120;2023-07-29T02:54:10;99897.50;;;20.60;86.15
48015;BME280;33780;51.034;7.120;2023-07-29T02:56:35;99901.88;;;20.61;86.13
48015;BME280;33780;51.034;7.120;2023-07-29T02:59:00;99903.53;;;20.62;86.16
48015;BME280;33780;51.034;7.120;2023-07-29T03:01:26;99900.00;;;20.61;86.13
48015;BME280;33780;51.034;7.120;2023-07-29T03:03:51;99892.66;;;20.62;86.27
48015;BME280;33780;51.034;7.120;2023-07-29T03:06:17;99890.78;;;20.62;86.08
48015;BME280;33780;51.034;7.120;2023-07-29T03:08:42;99883.69;;;20.61;86.17
48015;BME280;33780;51.034;7.120;2023-07-29T03:11:09;99878.84;;;20.63;85.97
48015;BME280;33780;51.034;7.120;2023-07-29T03:13:35;99876.97;;;20.64;86.25
48015;BME280;33780;51.034;7.120;2023-07-29T03:16:12;99883.25;;;20.64;86.27
48015;BME280;33780;51.034;7.120;2023-07-29T03:18:39;99888.69;;;20.64;86.10
48015;BME280;33780;51.034;7.120;2023-07-29T03:21:05;99891.19;;;20.66;85.97
48015;BME280;33780;51.034;7.120;2023-07-29T03:23:31;99889.31;;;20.66;86.14
48015;BME280;33780;51.034;7.120;2023-07-29T03:25:58;99884.94;;;20.65;86.02
48015;BME280;33780;51.034;7.120;2023-07-29T03:28:25;99875.72;;;20.66;86.09
48015;BME280;33780;51.034;7.120;2023-07-29T03:30:51;99873.00;;;20.66;86.07
48015;BME280;33780;51.034;7.120;2023-07-29T03:33:16;99875.72;;;20.66;86.14
48015;BME280;33780;51.034;7.120;2023-07-29T03:35:41;99876.78;;;20.65;86.18
48015;BME280;33780;51.034;7.120;2023-07-29T03:38:09;99885.78;;;20.66;86.33
48015;BME280;33780;51.034;7.120;2023-07-29T03:40:34;99886.81;;;20.65;86.01
48015;BME280;33780;51.034;7.120;2023-07-29T03:43:00;99884.94;;;20.65;86.22
48015;BME280;33780;51.034;7.120;2023-07-29T03:45:25;99876.78;;;20.65;85.96
48015;BME280;33780;51.034;7.120;2023-07-29T03:47:50;99865.06;;;20.65;86.15
48015;BME280;33780;51.034;7.120;2023-07-29T03:50:16;99865.06;;;20.65;86.29
48015;BME280;33780;51.034;7.120;2023-07-29T03:52:41;99870.50;;;20.65;86.08
48015;BME280;33780;51.034;7.120;2023-07-29T03:55:07;99882.41;;;20.64;86.21
48015;BME280;33780;51.034;7.120;2023-07-29T03:57:32;99884.28;;;20.63;86.08
48015;BME280;33780;51.034;7.120;2023-07-29T03:59:57;99886.19;;;20.63;85.89
48015;BME280;33780;51.034;7.120;2023-07-29T04:02:22;99879.69;;;20.64;85.93
48015;BME280;33780;51.034;7.120;2023-07-29T04:04:48;99868.19;;;20.62;85.84
48015;BME280;33780;51.034;7.120;2023-07-29T04:07:14;99863.59;;;20.62;85.98
48015;BME280;33780;51.034;7.120;2023-07-29T04:09:39;99866.53;;;20.61;85.71
48015;BME280;33780;51.034;7.120;2023-07-29T04:12:05;99882.00;;;20.60;86.13
48015;BME280;33780;51.034;7.120;2023-07-29T04:14:30;99888.50;;;20.59;86.21
48015;BME280;33780;51.034;7.120;2023-07-29T04:16:56;99874.06;;;20.59;85.91
48015;BME280;33780;51.034;7.120;2023-07-29T04:19:21;99877.84;;;20.58;86.03
48015;BME280;33780;51.034;7.120;2023-07-29T04:21:46;99896.03;;;20.57;85.96
48015;BME280;33780;51.034;7.120;2023-07-29T04:24:12;99902.53;;;20.56;85.98
48015;BME280;33780;51.034;7.120;2023-07-29T04:26:37;99909.84;;;20.56;86.13
48015;BME280;33780;51.034;7.120;2023-07-29T04:29:04;99896.25;;;20.56;86.05
48015;BME280;33780;51.034;7.120;2023-07-29T04:31:29;99890.81;;;20.56;86.09
48015;BME280;33780;51.034;7.120;2023-07-29T04:33:54;99897.94;;;20.57;86.35
48015;BME280;33780;51.034;7.120;2023-07-29T04:36:19;99887.06;;;20.57;86.20
48015;BME280;33780;51.034;7.120;2023-07-29T04:38:45;99895.22;;;20.57;86.08
48015;BME280;33780;51.034;7.120;2023-07-29T04:41:10;99898.75;;;20.57;86.17
48015;BME280;33780;51.034;7.120;2023-07-29T04:43:36;99899.59;;;20.58;86.21
48015;BME280;33780;51.034;7.120;2023-07-29T04:46:01;99893.09;;;20.59;86.05
48015;BME280;33780;51.034;7.120;2023-07-29T04:48:26;99893.09;;;20.59;85.95
48015;BME280;33780;51.034;7.120;2023-07-29T04:50:52;99903.97;;;20.59;86.13
48015;BME280;33780;51.034;7.120;2023-07-29T04:53:17;99921.13;;;20.59;86.13
48015;BME280;33780;51.034;7.120;2023-07-29T04:55:42;99925.72;;;20.59;86.13
48015;BME280;33780;51.034;7.120;2023-07-29T04:58:08;99936.81;;;20.57;86.10
48015;BME280;33780;51.034;7.120;2023-07-29T05:00:34;99933.06;;;20.58;86.10
48015;BME280;33780;51.034;7.120;2023-07-29T05:02:59;99936.00;;;20.57;86.21
48015;BME280;33780;51.034;7.120;2023-07-29T05:05:26;99924.91;;;20.58;86.33
48015;BME280;33780;51.034;7.120;2023-07-29T05:07:51;99917.34;;;20.60;86.22
48015;BME280;33780;51.034;7.120;2023-07-29T05:10:16;99911.91;;;20.60;86.13
48015;BME280;33780;51.034;7.120;2023-07-29T05:12:42;99922.56;;;20.62;85.93
48015;BME280;33780;51.034;7.120;2023-07-29T05:15:08;99917.75;;;20.64;86.22
48015;BME280;33780;51.034;7.120;2023-07-29T05:17:33;99911.28;;;20.65;86.03
48015;BME280;33780;51.034;7.120;2023-07-29T05:19:58;99902.91;;;20.66;86.00
48015;BME280;33780;51.034;7.120;2023-07-29T05:22:24;99908.13;;;20.68;86.15
48015;BME280;33780;51.034;7.120;2023-07-29T05:24:50;99906.25;;;20.68;85.93
48015;BME280;33780;51.034;7.120;2023-07-29T05:27:15;99905.81;;;20.71;86.05
48015;BME280;33780;51.034;7.120;2023-07-29T05:29:40;99906.84;;;20.70;85.67
48015;BME280;33780;51.034;7.120;2023-07-29T05:32:05;99908.53;;;20.71;85.92
48015;BME280;33780;51.034;7.120;2023-07-29T05:34:31;99904.53;;;20.74;86.07
48015;BME280;33780;51.034;7.120;2023-07-29T05:36:56;99911.03;;;20.73;86.25
48015;BME280;33780;51.034;7.120;2023-07-29T05:39:21;99910.59;;;20.76;86.18
48015;BME280;33780;51.034;7.120;2023-07-29T05:41:46;99922.28;;;20.76;86.17
48015;BME280;33780;51.034;7.120;2023-07-29T05:44:12;99926.69;;;20.77;86.17
48015;BME280;33780;51.034;7.120;2023-07-29T05:46:37;99935.66;;;20.78;86.15
48015;BME280;33780;51.034;7.120;2023-07-29T05:49:03;99938.41;;;20.78;86.24
48015;BME280;33780;51.034;7.120;2023-07-29T05:51:28;99953.88;;;20.77;86.16
48015;BME280;33780;51.034;7.120;2023-07-29T05:53:53;99944.88;;;20.77;86.13
48015;BME280;33780;51.034;7.120;2023-07-29T05:56:18;99946.78;;;20.76;86.23
48015;BME280;33780;51.034;7.120;2023-07-29T05:58:44;99944.06;;;20.76;86.24
48015;BME280;33780;51.034;7.120;2023-07-29T06:01:09;99947.81;;;20.75;86.02
48015;BME280;33780;51.034;7.120;2023-07-29T06:03:34;99954.94;;;20.76;86.34
48015;BME280;33780;51.034;7.120;2023-07-29T06:06:00;99965.59;;;20.78;86.24
48015;BME280;33780;51.034;7.120;2023-07-29T06:08:25;99965.38;;;20.79;86.15
48015;BME280;33780;51.034;7.120;2023-07-29T06:10:53;99968.69;;;20.81;86.17
48015;BME280;33780;51.034;7.120;2023-07-29T06:13:18;99970.19;;;20.84;86.12
48015;BME280;33780;51.034;7.120;2023-07-29T06:15:44;99981.69;;;20.86;85.93
48015;BME280;33780;51.034;7.120;2023-07-29T06:18:09;99975.78;;;20.89;85.70
48015;BME280;33780;51.034;7.120;2023-07-29T06:20:34;99982.06;;;20.90;86.08
48015;BME280;33780;51.034;7.120;2023-07-29T06:22:59;99978.06;;;20.92;86.09
48015;BME280;33780;51.034;7.120;2023-07-29T06:25:25;99989.78;;;20.93;85.86
48015;BME280;33780;51.034;7.120;2023-07-29T06:27:50;99990.41;;;20.95;85.98
48015;BME280;33780;51.034;7.120;2023-07-29T06:30:15;99994.19;;;20.94;85.08
48015;BME280;33780;51.034;7.120;2023-07-29T06:32:40;100000.44;;;20.94;85.48
48015;BME280;33780;51.034;7.120;2023-07-29T06:35:06;99989.56;;;20.94;85.13
48015;BME280;33780;51.034;7.120;2023-07-29T06:37:31;99999.63;;;20.94;85.04
48015;BME280;33780;51.034;7.120;2023-07-29T06:39:58;100009.66;;;20.93;84.86
48015;BME280;33780;51.034;7.120;2023-07-29T06:42:23;99999.84;;;20.92;84.43
48015;BME280;33780;51.034;7.120;2023-07-29T06:44:48;100007.38;;;20.90;84.40
48015;BME280;33780;51.034;7.120;2023-07-29T06:47:14;100021.22;;;20.89;84.29
48015;BME280;33780;51.034;7.120;2023-07-29T06:49:39;100015.75;;;20.89;84.17
48015;BME280;33780;51.034;7.120;2023-07-29T06:52:04;100006.16;;;20.86;83.47
48015;BME280;33780;51.034;7.120;2023-07-29T06:54:30;100012.66;;;20.85;83.66
48015;BME280;33780;51.034;7.120;2023-07-29T06:56:55;100008.25;;;20.84;83.54
48015;BME280;33780;51.034;7.120;2023-07-29T06:59:20;100000.94;;;20.85;83.48
48015;BME280;33780;51.034;7.120;2023-07-29T07:01:46;100002.00;;;20.84;83.34
48015;BME280;33780;51.034;7.120;2023-07-29T07:04:11;100017.47;;;20.83;83.21
48015;BME280;33780;51.034;7.120;2023-07-29T07:06:36;100008.47;;;20.83;82.94
48015;BME280;33780;51.034;7.120;2023-07-29T07:09:02;100004.91;;;20.82;82.85
48015;BME280;33780;51.034;7.120;2023-07-29T07:11:27;100010.16;;;20.84;82.68
48015;BME280;33780;51.034;7.120;2023-07-29T07:13:53;100008.66;;;20.88;82.85
48015;BME280;33780;51.034;7.120;2023-07-29T07:16:18;100005.50;;;20.91;83.05
48015;BME280;33780;51.034;7.120;2023-07-29T07:18:43;100015.94;;;20.94;82.80
48015;BME280;33780;51.034;7.120;2023-07-29T07:21:09;100011.94;;;20.96;82.34
48015;BME280;33780;51.034;7.120;2023-07-29T07:23:34;100000.84;;;20.98;82.63
48015;BME280;33780;51.034;7.120;2023-07-29T07:25:59;100004.19;;;21.00;82.57
48015;BME280;33780;51.034;7.120;2023-07-29T07:28:24;100001.28;;;21.01;82.22
48015;BME280;33780;51.034;7.120;2023-07-29T07:30:50;100007.09;;;21.05;82.24
48015;BME280;33780;51.034;7.120;2023-07-29T07:33:15;100008.56;;;21.07;81.94
48015;BME280;33780;51.034;7.120;2023-07-29T07:35:40;100016.72;;;21.07;81.67
48015;BME280;33780;51.034;7.120;2023-07-29T07:38:07;100024.88;;;21.07;80.58
48015;BME280;33780;51.034;7.120;2023-07-29T07:40:34;100018.38;;;21.08;80.68
48015;BME280;33780;51.034;7.120;2023-07-29T07:43:00;100016.50;;;21.09;80.64
48015;BME280;33780;51.034;7.120;2023-07-29T07:45:25;100022.78;;;21.09;80.38
48015;BME280;33780;51.034;7.120;2023-07-29T07:47:52;100023.38;;;21.11;79.89
48015;BME280;33780;51.034;7.120;2023-07-29T07:50:18;100025.88;;;21.13;79.92
48015;BME280;33780;51.034;7.120;2023-07-29T07:52:43;100027.34;;;21.16;79.29
48015;BME280;33780;51.034;7.120;2023-07-29T07:55:09;100021.47;;;21.19;78.90
48015;BME280;33780;51.034;7.120;2023-07-29T07:57:34;100026.25;;;21.23;78.61
48015;BME280;33780;51.034;7.120;2023-07-29T07:59:59;100025.25;;;21.24;78.45
48015;BME280;33780;51.034;7.120;2023-07-29T08:02:24;100037.97;;;21.24;77.13
48015;BME280;33780;51.034;7.120;2023-07-29T08:04:50;100026.72;;;21.20;76.56
48015;BME280;33780;51.034;7.120;2023-07-29T08:07:15;100032.97;;;21.21;76.72
48015;BME280;33780;51.034;7.120;2023-07-29T08:09:40;100032.16;;;21.20;77.36
48015;BME280;33780;51.034;7.120;2023-07-29T08:12:06;100030.03;;;21.22;77.79
48015;BME280;33780;51.034;7.120;2023-07-29T08:14:31;100026.69;;;21.27;78.28
48015;BME280;33780;51.034;7.120;2023-07-29T08:16:56;100028.97;;;21.30;78.15
48015;BME280;33780;51.034;7.120;2023-07-29T08:19:22;100026.41;;;21.35;78.08
48015;BME280;33780;51.034;7.120;2023-07-29T08:21:47;100024.53;;;21.35;78.08
48015;BME280;33780;51.034;7.120;2023-07-29T08:24:13;100024.53;;;21.35;77.80
48015;BME280;33780;51.034;7.120;2023-07-29T08:26:38;100025.38;;;21.36;77.54
48015;BME280;33780;51.034;7.120;2023-07-29T08:29:03;100026.22;;;21.36;77.13
48015;BME280;33780;51.034;7.120;2023-07-29T08:31:29;100020.78;;;21.36;76.53
48015;BME280;33780;51.034;7.120;2023-07-29T08:33:55;100022.00;;;21.40;76.92
48015;BME280;33780;51.034;7.120;2023-07-29T08:36:21;100019.66;;;21.44;75.96
48015;BME280;33780;51.034;7.120;2023-07-29T08:38:46;100025.91;;;21.51;75.86
48015;BME280;33780;51.034;7.120;2023-07-29T08:43:44;100028.09;;;21.67;75.39
48015;BME280;33780;51.034;7.120;2023-07-29T08:46:10;100031.84;;;21.73;75.35
48015;BME280;33780;51.034;7.120;2023-07-29T08:48:40;100025.03;;;21.82;73.80
48015;BME280;33780;51.034;7.120;2023-07-29T08:51:08;100031.72;;;21.86;74.30
48015;BME280;33780;51.034;7.120;2023-07-29T08:53:33;100034.63;;;21.91;74.46
48015;BME280;33780;51.034;7.120;2023-07-29T08:55:59;100036.06;;;21.94;73.77
48015;BME280;33780;51.034;7.120;2023-07-29T08:58:25;100033.34;;;21.94;74.05
48015;BME280;33780;51.034;7.120;2023-07-29T09:00:50;100045.69;;;21.96;72.71
48015;BME280;33780;51.034;7.120;2023-07-29T09:03:16;100042.34;;;21.94;73.27
48015;BME280;33780;51.034;7.120;2023-07-29T09:05:41;100048.84;;;21.93;72.62
48015;BME280;33780;51.034;7.120;2023-07-29T09:08:06;100046.34;;;21.92;71.90
48015;BME280;33780;51.034;7.120;2023-07-29T09:10:35;100046.34;;;21.92;72.17
48015;BME280;33780;51.034;7.120;2023-07-29T09:13:01;100044.47;;;21.92;72.83
48015;BME280;33780;51.034;7.120;2023-07-29T09:15:29;100049.69;;;21.94;72.47
48015;BME280;33780;51.034;7.120;2023-07-29T09:17:58;100054.91;;;21.95;72.03
48015;BME280;33780;51.034;7.120;2023-07-29T09:20:27;100053.03;;;21.96;70.63
48015;BME280;33780;51.034;7.120;2023-07-29T09:22:58;100045.91;;;21.95;71.08
48015;BME280;33780;51.034;7.120;2023-07-29T09:25:28;100041.28;;;21.95;71.59
48015;BME280;33780;51.034;7.120;2023-07-29T09:28:00;100050.06;;;21.97;70.86
48015;BME280;33780;51.034;7.120;2023-07-29T09:30:26;100046.28;;;21.98;71.85
48015;BME280;33780;51.034;7.120;2023-07-29T09:32:58;100043.13;;;22.01;71.71
48015;BME280;33780;51.034;7.120;2023-07-29T09:35:27;100049.16;;;22.03;69.82
48015;BME280;33780;51.034;7.120;2023-07-29T09:37:52;100040.81;;;22.05;71.19
48015;BME280;33780;51.034;7.120;2023-07-29T09:40:18;100043.28;;;22.07;70.39
48015;BME280;33780;51.034;7.120;2023-07-29T09:42:54;100048.19;;;21.98;69.63
48015;BME280;33780;51.034;7.120;2023-07-29T09:45:27;100051.13;;;21.96;69.88
48015;BME280;33780;51.034;7.120;2023-07-29T09:47:53;100058.03;;;21.99;70.16
48015;BME280;33780;51.034;7.120;2023-07-29T09:50:22;100052.56;;;21.99;69.56
48015;BME280;33780;51.034;7.120;2023-07-29T09:52:52;100053.63;;;21.98;69.63
48015;BME280;33780;51.034;7.120;2023-07-29T09:55:19;100058.69;;;21.94;69.14
48015;BME280;33780;51.034;7.120;2023-07-29T09:57:46;100055.97;;;21.94;69.97
48015;BME280;33780;51.034;7.120;2023-07-29T10:00:14;100053.84;;;21.96;69.95
48015;BME280;33780;51.034;7.120;2023-07-29T10:02:41;100046.66;;;22.02;70.38
48015;BME280;33780;51.034;7.120;2023-07-29T10:05:15;100048.53;;;22.08;70.80
48015;BME280;33780;51.034;7.120;2023-07-29T10:07:40;100050.38;;;22.14;70.34
48015;BME280;33780;51.034;7.120;2023-07-29T10:10:07;100048.41;;;22.21;70.20
48015;BME280;33780;51.034;7.120;2023-07-29T10:12:33;100049.25;;;22.22;70.32
48015;BME280;33780;51.034;7.120;2023-07-29T10:15:06;100061.34;;;22.26;70.33
48015;BME280;33780;51.034;7.120;2023-07-29T10:17:38;100061.78;;;22.29;69.34
48015;BME280;33780;51.034;7.120;2023-07-29T10:20:05;100059.88;;;22.30;68.75
48015;BME280;33780;51.034;7.120;2023-07-29T10:22:41;100053.97;;;22.33;68.58
48015;BME280;33780;51.034;7.120;2023-07-29T10:25:18;100058.75;;;22.38;68.69
48015;BME280;33780;51.034;7.120;2023-07-29T10:27:47;100058.69;;;22.44;67.06
48015;BME280;33780;51.034;7.120;2023-07-29T10:30:14;100062.78;;;22.53;68.60
48015;BME280;33780;51.034;7.120;2023-07-29T10:32:43;100061.63;;;22.61;68.80
48015;BME280;33780;51.034;7.120;2023-07-29T10:35:12;100052.19;;;22.64;69.20
48015;BME280;33780;51.034;7.120;2023-07-29T10:37:38;100052.81;;;22.66;69.29
48015;BME280;33780;51.034;7.120;2023-07-29T10:40:09;100044.84;;;22.64;69.28
48015;BME280;33780;51.034;7.120;2023-07-29T10:42:36;100048.00;;;22.61;69.71
48015;BME280;33780;51.034;7.120;2023-07-29T10:45:17;100047.25;;;22.54;69.00
48015;BME280;33780;51.034;7.120;2023-07-29T10:50:17;100059.72;;;22.43;68.88
48015;BME280;33780;51.034;7.120;2023-07-29T10:52:43;100059.34;;;22.40;69.14
48015;BME280;33780;51.034;7.120;2023-07-29T10:58:15;100067.88;;;22.25;69.01
48015;BME280;33780;51.034;7.120;2023-07-29T11:00:45;100066.50;;;22.16;69.53
48015;BME280;33780;51.034;7.120;2023-07-29T11:03:13;100063.84;;;22.09;69.60
48015;BME280;33780;51.034;7.120;2023-07-29T11:05:44;100069.28;;;22.09;69.95
48015;BME280;33780;51.034;7.120;2023-07-29T11:08:36;100065.50;;;22.10;69.59
48015;BME280;33780;51.034;7.120;2023-07-29T11:11:08;100060.66;;;22.12;70.04
48015;BME280;33780;51.034;7.120;2023-07-29T11:13:37;100057.72;;;22.14;69.29
48015;BME280;33780;51.034;7.120;2023-07-29T11:16:04;100057.28;;;22.17;69.26
48015;BME280;33780;51.034;7.120;2023-07-29T11:18:31;100052.41;;;22.19;68.72
48015;BME280;33780;51.034;7.120;2023-07-29T11:20:58;100057.41;;;22.22;69.03
48015;BME280;33780;51.034;7.120;2023-07-29T11:23:34;100061.34;;;22.26;69.01
48015;BME280;33780;51.034;7.120;2023-07-29T11:26:00;100053.00;;;22.27;69.23
48015;BME280;33780;51.034;7.120;2023-07-29T11:28:27;100057.75;;;22.32;68.46
48015;BME280;33780;51.034;7.120;2023-07-29T11:30:56;100052.22;;;22.39;68.25
48015;BME280;33780;51.034;7.120;2023-07-29T11:33:24;100049.22;;;22.47;68.61
48015;BME280;33780;51.034;7.120;2023-07-29T11:35:50;100047.63;;;22.57;68.23
48015;BME280;33780;51.034;7.120;2023-07-29T11:38:19;100039.16;;;22.66;67.83
48015;BME280;33780;51.034;7.120;2023-07-29T11:40:59;100049.53;;;22.75;66.73
48015;BME280;33780;51.034;7.120;2023-07-29T11:43:25;100046.06;;;22.86;68.12
48015;BME280;33780;51.034;7.120;2023-07-29T11:45:51;100041.72;;;22.97;67.09
48015;BME280;33780;51.034;7.120;2023-07-29T11:48:27;100032.88;;;23.02;67.07
48015;BME280;33780;51.034;7.120;2023-07-29T11:50:54;100035.28;;;23.10;66.78
48015;BME280;33780;51.034;7.120;2023-07-29T11:53:26;100034.75;;;23.19;66.75
48015;BME280;33780;51.034;7.120;2023-07-29T11:55:59;100039.63;;;23.29;66.79
48015;BME280;33780;51.034;7.120;2023-07-29T11:58:28;100031.13;;;23.37;65.96
48015;BME280;33780;51.034;7.120;2023-07-29T12:01:04;100042.53;;;23.46;65.35
48015;BME280;33780;51.034;7.120;2023-07-29T12:03:30;100040.75;;;23.51;64.88
48015;BME280;33780;51.034;7.120;2023-07-29T12:05:59;100038.81;;;23.59;65.92
48015;BME280;33780;51.034;7.120;2023-07-29T12:08:24;100047.38;;;23.62;65.29
48015;BME280;33780;51.034;7.120;2023-07-29T12:10:53;100044.16;;;23.65;65.62
48015;BME280;33780;51.034;7.120;2023-07-29T12:13:18;100036.34;;;23.69;65.64
48015;BME280;33780;51.034;7.120;2023-07-29T12:15:46;100036.00;;;23.77;64.43
48015;BME280;33780;51.034;7.120;2023-07-29T12:18:14;100030.19;;;23.85;65.05
48015;BME280;33780;51.034;7.120;2023-07-29T12:20:40;100033.06;;;23.90;64.89
48015;BME280;33780;51.034;7.120;2023-07-29T12:23:06;100034.97;;;23.90;65.32
48015;BME280;33780;51.034;7.120;2023-07-29T12:25:33;100030.22;;;23.97;64.01
48015;BME280;33780;51.034;7.120;2023-07-29T12:28:05;100027.72;;;23.95;64.29
48015;BME280;33780;51.034;7.120;2023-07-29T12:30:41;100024.88;;;24.02;64.89
48015;BME280;33780;51.034;7.120;2023-07-29T12:33:09;100025.59;;;24.09;65.13
48015;BME280;33780;51.034;7.120;2023-07-29T12:35:38;100022.97;;;24.14;64.40
48015;BME280;33780;51.034;7.120;2023-07-29T12:38:12;100018.34;;;24.15;64.39
48015;BME280;33780;51.034;7.120;2023-07-29T12:40:45;100012.38;;;24.18;63.91
48015;BME280;33780;51.034;7.120;2023-07-29T12:43:11;100007.50;;;24.20;64.05
48015;BME280;33780;51.034;7.120;2023-07-29T12:45:39;100009.75;;;24.23;62.48
48015;BME280;33780;51.034;7.120;2023-07-29T12:48:06;100013.25;;;24.30;63.26
48015;BME280;33780;51.034;7.120;2023-07-29T12:50:32;100009.56;;;24.36;61.81
48015;BME280;33780;51.034;7.120;2023-07-29T12:53:02;100007.31;;;24.45;62.49
48015;BME280;33780;51.034;7.120;2023-07-29T12:55:27;100010.97;;;24.50;62.20
48015;BME280;33780;51.034;7.120;2023-07-29T12:57:53;100007.75;;;24.53;61.06
48015;BME280;33780;51.034;7.120;2023-07-29T13:00:18;100013.81;;;24.55;61.39
48015;BME280;33780;51.034;7.120;2023-07-29T13:02:46;100014.41;;;24.57;61.15
48015;BME280;33780;51.034;7.120;2023-07-29T13:05:20;100013.31;;;24.58;60.92